sensor_id;sensor_type;location;lat;lon;timestamp;P1;durP1;ratioP1;P2;durP2;ratioP2
13208;SDS011;6669;42.678;23.332;2023-06-14T00:02:08;3.50;;;3.20;;
13208;SDS011;6669;42.678;23.332;2023-06-14T00:04:37;3.40;;;3.10;;
13208;SDS011;6669;42.678;23.332;2023-06-14T00:07:09;4.20;;;3.38;;
13208;SDS011;6669;42.678;23.332;2023-06-14T00:09:40;4.10;;;3.20;;
13208;SDS011;6669;42.678;23.332;2023-06-14T00:12:08;3.22;;;2.92;;
13208;SDS011;6669;42.678;23.332;2023-06-14T00:14:36;3.10;;;2.80;;
13208;SDS011;6669;42.678;23.332;2023-06-14T00:17:04;3.58;;;2.97;;
13208;SDS011;6669;42.678;23.332;2023-06-14T00:19:33;3.13;;;2.80;;
13208;SDS011;6669;42.678;23.332;2023-06-14T00:22:03;3.35;;;2.90;;
13208;SDS011;6669;42.678;23.332;2023-06-14T00:24:33;2.55;;;2.35;;
13208;SDS011;6669;42.678;23.332;2023-06-14T00:27:01;3.03;;;2.72;;
13208;SDS011;6669;42.678;23.332;2023-06-14T00:29:29;3.90;;;3.17;;
13208;SDS011;6669;42.678;23.332;2023-06-14T00:31:57;3.17;;;2.88;;
13208;SDS011;6669;42.678;23.332;2023-06-14T00:34:25;2.90;;;2.67;;
13208;SDS011;6669;42.678;23.332;2023-06-14T00:36:53;3.47;;;2.40;;
13208;SDS011;6669;42.678;23.332;2023-06-14T00:39:21;2.85;;;2.65;;
13208;SDS011;6669;42.678;23.332;2023-06-14T00:41:50;4.00;;;3.13;;
13208;SDS011;6669;42.678;23.332;2023-06-14T00:44:18;3.53;;;2.72;;
13208;SDS011;6669;42.678;23.332;2023-06-14T00:46:47;2.78;;;2.58;;
13208;SDS011;6669;42.678;23.332;2023-06-14T00:49:16;2.90;;;2.70;;
13208;SDS011;6669;42.678;23.332;2023-06-14T00:51:46;2.70;;;2.45;;
13208;SDS011;6669;42.678;23.332;2023-06-14T00:54:15;2.58;;;2.38;;
13208;SDS011;6669;42.678;23.332;2023-06-14T00:56:43;2.60;;;2.40;;
13208;SDS011;6669;42.678;23.332;2023-06-14T00:59:13;2.70;;;2.50;;
13208;SDS011;6669;42.678;23.332;2023-06-14T01:01:41;2.50;;;2.30;;
13208;SDS011;6669;42.678;23.332;2023-06-14T01:04:10;2.53;;;2.33;;
13208;SDS011;6669;42.678;23.332;2023-06-14T01:06:40;2.60;;;2.40;;
13208;SDS011;6669;42.678;23.332;2023-06-14T01:09:18;2.75;;;2.55;;
13208;SDS011;6669;42.678;23.332;2023-06-14T01:11:55;2.80;;;2.60;;
13208;SDS011;6669;42.678;23.332;2023-06-14T01:14:32;2.67;;;2.45;;
13208;SDS011;6669;42.678;23.332;2023-06-14T01:17:02;3.30;;;2.80;;
13208;SDS011;6669;42.678;23.332;2023-06-14T01:19:32;3.30;;;2.70;;
13208;SDS011;6669;42.678;23.332;2023-06-14T01:22:00;2.67;;;2.47;;
13208;SDS011;6669;42.678;23.332;2023-06-14T01:24:31;7.35;;;6.57;;
13208;SDS011;6669;42.678;23.332;2023-06-14T01:27:01;2.95;;;2.63;;
13208;SDS011;6669;42.678;23.332;2023-06-14T01:29:30;2.80;;;2.50;;
13208;SDS011;6669;42.678;23.332;2023-06-14T01:31:59;7.45;;;3.00;;
13208;SDS011;6669;42.678;23.332;2023-06-14T01:34:28;2.97;;;2.67;;
13208;SDS011;6669;42.678;23.332;2023-06-14T01:36:56;2.78;;;2.50;;
13208;SDS011;6669;42.678;23.332;2023-06-14T01:39:27;2.90;;;2.70;;
13208;SDS011;6669;42.678;23.332;2023-06-14T01:41:58;2.95;;;2.63;;
13208;SDS011;6669;42.678;23.332;2023-06-14T01:44:27;3.10;;;2.80;;
13208;SDS011;6669;42.678;23.332;2023-06-14T01:46:58;2.92;;;2.63;;
13208;SDS011;6669;42.678;23.332;2023-06-14T01:49:26;2.92;;;2.63;;
13208;SDS011;6669;42.678;23.332;2023-06-14T01:51:55;3.10;;;2.83;;
13208;SDS011;6669;42.678;23.332;2023-06-14T01:54:23;3.30;;;3.00;;
13208;SDS011;6669;42.678;23.332;2023-06-14T01:56:52;3.10;;;2.80;;
13208;SDS011;6669;42.678;23.332;2023-06-14T01:59:22;2.88;;;2.67;;
13208;SDS011;6669;42.678;23.332;2023-06-14T02:01:50;3.55;;;3.08;;
13208;SDS011;6669;42.678;23.332;2023-06-14T02:04:18;3.08;;;2.78;;
13208;SDS011;6669;42.678;23.332;2023-06-14T02:06:46;3.65;;;3.30;;
13208;SDS011;6669;42.678;23.332;2023-06-14T02:09:14;3.28;;;2.80;;
13208;SDS011;6669;42.678;23.332;2023-06-14T02:11:42;3.00;;;2.60;;
13208;SDS011;6669;42.678;23.332;2023-06-14T02:14:10;3.17;;;2.88;;
13208;SDS011;6669;42.678;23.332;2023-06-14T02:16:40;3.45;;;3.15;;
13208;SDS011;6669;42.678;23.332;2023-06-14T02:19:15;3.33;;;2.90;;
13208;SDS011;6669;42.678;23.332;2023-06-14T02:21:43;3.65;;;3.20;;
13208;SDS011;6669;42.678;23.332;2023-06-14T02:24:12;3.42;;;3.13;;
13208;SDS011;6669;42.678;23.332;2023-06-14T02:26:40;3.65;;;3.13;;
13208;SDS011;6669;42.678;23.332;2023-06-14T02:29:09;3.50;;;3.20;;
13208;SDS011;6669;42.678;23.332;2023-06-14T02:31:40;3.42;;;3.13;;
13208;SDS011;6669;42.678;23.332;2023-06-14T02:34:08;3.30;;;3.00;;
13208;SDS011;6669;42.678;23.332;2023-06-14T02:36:36;3.30;;;3.00;;
13208;SDS011;6669;42.678;23.332;2023-06-14T02:39:08;3.28;;;2.97;;
13208;SDS011;6669;42.678;23.332;2023-06-14T02:41:37;3.25;;;2.95;;
13208;SDS011;6669;42.678;23.332;2023-06-14T02:44:05;3.30;;;3.00;;
13208;SDS011;6669;42.678;23.332;2023-06-14T02:46:34;3.13;;;2.83;;
13208;SDS011;6669;42.678;23.332;2023-06-14T02:49:03;3.80;;;3.50;;
13208;SDS011;6669;42.678;23.332;2023-06-14T02:51:31;5.88;;;3.67;;
13208;SDS011;6669;42.678;23.332;2023-06-14T02:53:59;3.15;;;2.88;;
13208;SDS011;6669;42.678;23.332;2023-06-14T02:56:28;3.42;;;3.13;;
13208;SDS011;6669;42.678;23.332;2023-06-14T02:58:56;3.35;;;3.05;;
13208;SDS011;6669;42.678;23.332;2023-06-14T03:01:25;5.68;;;3.55;;
13208;SDS011;6669;42.678;23.332;2023-06-14T03:04:00;3.50;;;3.20;;
13208;SDS011;6669;42.678;23.332;2023-06-14T03:06:31;3.45;;;3.15;;
13208;SDS011;6669;42.678;23.332;2023-06-14T03:09:00;3.40;;;3.10;;
13208;SDS011;6669;42.678;23.332;2023-06-14T03:11:31;4.00;;;3.60;;
13208;SDS011;6669;42.678;23.332;2023-06-14T03:13:59;3.70;;;3.40;;
13208;SDS011;6669;42.678;23.332;2023-06-14T03:16:30;4.28;;;3.45;;
13208;SDS011;6669;42.678;23.332;2023-06-14T03:18:58;4.13;;;3.47;;
13208;SDS011;6669;42.678;23.332;2023-06-14T03:21:26;3.58;;;3.28;;
13208;SDS011;6669;42.678;23.332;2023-06-14T03:23:56;4.00;;;3.63;;
13208;SDS011;6669;42.678;23.332;2023-06-14T03:26:24;3.55;;;3.25;;
13208;SDS011;6669;42.678;23.332;2023-06-14T03:28:52;3.33;;;3.03;;
13208;SDS011;6669;42.678;23.332;2023-06-14T03:31:20;3.88;;;3.20;;
13208;SDS011;6669;42.678;23.332;2023-06-14T03:33:48;3.25;;;2.92;;
13208;SDS011;6669;42.678;23.332;2023-06-14T03:36:16;3.97;;;3.58;;
13208;SDS011;6669;42.678;23.332;2023-06-14T03:38:45;3.10;;;2.80;;
13208;SDS011;6669;42.678;23.332;2023-06-14T03:41:14;3.95;;;3.30;;
13208;SDS011;6669;42.678;23.332;2023-06-14T03:43:42;3.92;;;3.53;;
13208;SDS011;6669;42.678;23.332;2023-06-14T03:46:10;3.60;;;3.25;;
13208;SDS011;6669;42.678;23.332;2023-06-14T03:48:38;4.13;;;3.72;;
13208;SDS011;6669;42.678;23.332;2023-06-14T03:51:06;3.97;;;3.58;;
13208;SDS011;6669;42.678;23.332;2023-06-14T03:53:34;3.97;;;3.63;;
13208;SDS011;6669;42.678;23.332;2023-06-14T03:56:09;4.00;;;3.60;;
13208;SDS011;6669;42.678;23.332;2023-06-14T03:58:39;4.40;;;3.50;;
13208;SDS011;6669;42.678;23.332;2023-06-14T04:01:07;3.47;;;3.17;;
13208;SDS011;6669;42.678;23.332;2023-06-14T04:03:35;3.50;;;3.20;;
13208;SDS011;6669;42.678;23.332;2023-06-14T04:06:03;3.55;;;3.25;;
13208;SDS011;6669;42.678;23.332;2023-06-14T04:08:32;4.65;;;2.97;;
13208;SDS011;6669;42.678;23.332;2023-06-14T04:11:00;4.00;;;3.60;;
13208;SDS011;6669;42.678;23.332;2023-06-14T04:13:29;3.45;;;3.15;;
13208;SDS011;6669;42.678;23.332;2023-06-14T04:15:58;3.47;;;3.17;;
13208;SDS011;6669;42.678;23.332;2023-06-14T04:18:27;4.45;;;3.25;;
13208;SDS011;6669;42.678;23.332;2023-06-14T04:20:55;3.72;;;3.42;;
13208;SDS011;6669;42.678;23.332;2023-06-14T04:23:23;4.07;;;3.67;;
13208;SDS011;6669;42.678;23.332;2023-06-14T04:25:51;4.53;;;4.10;;
13208;SDS011;6669;42.678;23.332;2023-06-14T04:28:19;4.20;;;3.80;;
13208;SDS011;6669;42.678;23.332;2023-06-14T04:30:53;4.30;;;3.90;;
13208;SDS011;6669;42.678;23.332;2023-06-14T04:33:22;4.75;;;3.80;;
13208;SDS011;6669;42.678;23.332;2023-06-14T04:35:53;4.22;;;3.63;;
13208;SDS011;6669;42.678;23.332;2023-06-14T04:38:22;3.95;;;3.60;;
13208;SDS011;6669;42.678;23.332;2023-06-14T04:40:52;4.32;;;3.85;;
13208;SDS011;6669;42.678;23.332;2023-06-14T04:43:20;4.40;;;4.00;;
13208;SDS011;6669;42.678;23.332;2023-06-14T04:45:54;4.18;;;3.78;;
13208;SDS011;6669;42.678;23.332;2023-06-14T04:48:24;5.03;;;4.25;;
13208;SDS011;6669;42.678;23.332;2023-06-14T04:50:52;6.50;;;4.43;;
13208;SDS011;6669;42.678;23.332;2023-06-14T04:53:20;5.03;;;4.30;;
13208;SDS011;6669;42.678;23.332;2023-06-14T04:55:49;5.03;;;4.05;;
13208;SDS011;6669;42.678;23.332;2023-06-14T04:58:17;4.55;;;4.05;;
13208;SDS011;6669;42.678;23.332;2023-06-14T05:00:45;7.57;;;4.13;;
13208;SDS011;6669;42.678;23.332;2023-06-14T05:03:13;4.28;;;3.88;;
13208;SDS011;6669;42.678;23.332;2023-06-14T05:05:43;4.15;;;3.75;;
13208;SDS011;6669;42.678;23.332;2023-06-14T05:08:12;5.05;;;4.00;;
13208;SDS011;6669;42.678;23.332;2023-06-14T05:10:40;5.82;;;5.20;;
13208;SDS011;6669;42.678;23.332;2023-06-14T05:13:09;4.00;;;3.60;;
13208;SDS011;6669;42.678;23.332;2023-06-14T05:15:37;5.85;;;4.53;;
13208;SDS011;6669;42.678;23.332;2023-06-14T05:18:05;4.75;;;4.10;;
13208;SDS011;6669;42.678;23.332;2023-06-14T05:20:36;4.97;;;4.25;;
13208;SDS011;6669;42.678;23.332;2023-06-14T05:23:06;4.75;;;4.25;;
13208;SDS011;6669;42.678;23.332;2023-06-14T05:25:35;5.63;;;4.35;;
13208;SDS011;6669;42.678;23.332;2023-06-14T05:28:17;5.00;;;4.50;;
13208;SDS011;6669;42.678;23.332;2023-06-14T05:30:45;6.57;;;5.00;;
13208;SDS011;6669;42.678;23.332;2023-06-14T05:33:13;5.50;;;4.85;;
13208;SDS011;6669;42.678;23.332;2023-06-14T05:35:42;6.50;;;5.30;;
13208;SDS011;6669;42.678;23.332;2023-06-14T05:38:11;8.80;;;5.20;;
13208;SDS011;6669;42.678;23.332;2023-06-14T05:40:39;4.85;;;4.32;;
13208;SDS011;6669;42.678;23.332;2023-06-14T05:43:07;5.07;;;4.57;;
13208;SDS011;6669;42.678;23.332;2023-06-14T05:45:36;4.65;;;4.25;;
13208;SDS011;6669;42.678;23.332;2023-06-14T05:48:05;5.90;;;5.30;;
13208;SDS011;6669;42.678;23.332;2023-06-14T05:50:33;4.93;;;4.20;;
13208;SDS011;6669;42.678;23.332;2023-06-14T05:53:01;7.32;;;5.40;;
13208;SDS011;6669;42.678;23.332;2023-06-14T05:55:31;5.53;;;5.03;;
13208;SDS011;6669;42.678;23.332;2023-06-14T05:57:59;5.75;;;4.80;;
13208;SDS011;6669;42.678;23.332;2023-06-14T06:00:27;6.88;;;5.40;;
13208;SDS011;6669;42.678;23.332;2023-06-14T06:02:55;6.20;;;5.00;;
13208;SDS011;6669;42.678;23.332;2023-06-14T06:05:24;5.60;;;5.00;;
13208;SDS011;6669;42.678;23.332;2023-06-14T06:07:52;6.30;;;5.53;;
13208;SDS011;6669;42.678;23.332;2023-06-14T06:10:21;6.03;;;5.30;;
13208;SDS011;6669;42.678;23.332;2023-06-14T06:12:50;5.88;;;5.28;;
13208;SDS011;6669;42.678;23.332;2023-06-14T06:15:20;10.55;;;8.60;;
13208;SDS011;6669;42.678;23.332;2023-06-14T06:17:49;9.20;;;7.30;;
13208;SDS011;6669;42.678;23.332;2023-06-14T06:20:21;5.82;;;4.72;;
13208;SDS011;6669;42.678;23.332;2023-06-14T06:22:55;7.28;;;5.72;;
13208;SDS011;6669;42.678;23.332;2023-06-14T06:25:25;6.70;;;5.38;;
13208;SDS011;6669;42.678;23.332;2023-06-14T06:27:55;5.72;;;5.13;;
13208;SDS011;6669;42.678;23.332;2023-06-14T06:30:24;6.75;;;5.93;;
13208;SDS011;6669;42.678;23.332;2023-06-14T06:32:52;6.07;;;5.32;;
13208;SDS011;6669;42.678;23.332;2023-06-14T06:35:22;7.18;;;6.10;;
13208;SDS011;6669;42.678;23.332;2023-06-14T06:37:50;9.65;;;5.97;;
13208;SDS011;6669;42.678;23.332;2023-06-14T06:40:18;6.32;;;5.35;;
13208;SDS011;6669;42.678;23.332;2023-06-14T06:42:46;6.43;;;5.70;;
13208;SDS011;6669;42.678;23.332;2023-06-14T06:45:16;7.40;;;5.70;;
13208;SDS011;6669;42.678;23.332;2023-06-14T06:47:44;5.78;;;5.18;;
13208;SDS011;6669;42.678;23.332;2023-06-14T06:50:12;6.00;;;5.40;;
13208;SDS011;6669;42.678;23.332;2023-06-14T06:52:42;6.57;;;5.75;;
13208;SDS011;6669;42.678;23.332;2023-06-14T06:55:11;5.90;;;5.13;;
13208;SDS011;6669;42.678;23.332;2023-06-14T06:57:40;7.25;;;5.90;;
13208;SDS011;6669;42.678;23.332;2023-06-14T07:00:09;8.75;;;7.30;;
13208;SDS011;6669;42.678;23.332;2023-06-14T07:02:42;8.05;;;6.53;;
13208;SDS011;6669;42.678;23.332;2023-06-14T07:05:11;6.43;;;5.57;;
13208;SDS011;6669;42.678;23.332;2023-06-14T07:07:47;5.90;;;5.10;;
13208;SDS011;6669;42.678;23.332;2023-06-14T07:10:15;10.50;;;8.85;;
13208;SDS011;6669;42.678;23.332;2023-06-14T07:12:43;8.30;;;6.93;;
13208;SDS011;6669;42.678;23.332;2023-06-14T07:15:11;8.07;;;5.43;;
13208;SDS011;6669;42.678;23.332;2023-06-14T07:17:40;8.30;;;5.45;;
13208;SDS011;6669;42.678;23.332;2023-06-14T07:20:12;7.07;;;6.07;;
13208;SDS011;6669;42.678;23.332;2023-06-14T07:22:41;7.35;;;5.90;;
13208;SDS011;6669;42.678;23.332;2023-06-14T07:25:10;6.55;;;5.63;;
13208;SDS011;6669;42.678;23.332;2023-06-14T07:27:42;10.30;;;6.82;;
13208;SDS011;6669;42.678;23.332;2023-06-14T07:30:11;5.88;;;5.15;;
13208;SDS011;6669;42.678;23.332;2023-06-14T07:32:39;8.35;;;7.53;;
13208;SDS011;6669;42.678;23.332;2023-06-14T07:35:09;6.60;;;5.90;;
13208;SDS011;6669;42.678;23.332;2023-06-14T07:37:37;7.63;;;6.78;;
13208;SDS011;6669;42.678;23.332;2023-06-14T07:40:06;7.63;;;6.82;;
13208;SDS011;6669;42.678;23.332;2023-06-14T07:42:36;7.78;;;6.30;;
13208;SDS011;6669;42.678;23.332;2023-06-14T07:45:05;8.57;;;7.47;;
13208;SDS011;6669;42.678;23.332;2023-06-14T07:47:34;7.05;;;6.35;;
13208;SDS011;6669;42.678;23.332;2023-06-14T07:50:02;10.02;;;7.03;;
13208;SDS011;6669;42.678;23.332;2023-06-14T07:52:33;7.53;;;6.80;;
13208;SDS011;6669;42.678;23.332;2023-06-14T07:55:01;7.97;;;6.82;;
13208;SDS011;6669;42.678;23.332;2023-06-14T07:57:29;8.38;;;7.35;;
13208;SDS011;6669;42.678;23.332;2023-06-14T07:59:57;10.88;;;8.40;;
13208;SDS011;6669;42.678;23.332;2023-06-14T08:02:26;8.77;;;7.88;;
13208;SDS011;6669;42.678;23.332;2023-06-14T08:04:54;8.27;;;7.15;;
13208;SDS011;6669;42.678;23.332;2023-06-14T08:07:23;7.70;;;6.60;;
13208;SDS011;6669;42.678;23.332;2023-06-14T08:09:53;6.10;;;5.50;;
13208;SDS011;6669;42.678;23.332;2023-06-14T08:12:21;7.65;;;5.95;;
13208;SDS011;6669;42.678;23.332;2023-06-14T08:14:50;5.65;;;5.05;;
13208;SDS011;6669;42.678;23.332;2023-06-14T08:17:38;5.10;;;4.60;;
13208;SDS011;6669;42.678;23.332;2023-06-14T08:20:06;7.13;;;4.57;;
13208;SDS011;6669;42.678;23.332;2023-06-14T08:22:35;5.10;;;4.60;;
13208;SDS011;6669;42.678;23.332;2023-06-14T08:25:05;5.57;;;4.95;;
13208;SDS011;6669;42.678;23.332;2023-06-14T08:27:34;7.82;;;5.15;;
13208;SDS011;6669;42.678;23.332;2023-06-14T08:30:02;5.75;;;5.00;;
13208;SDS011;6669;42.678;23.332;2023-06-14T08:32:30;5.20;;;4.70;;
13208;SDS011;6669;42.678;23.332;2023-06-14T08:34:59;6.05;;;5.22;;
13208;SDS011;6669;42.678;23.332;2023-06-14T08:37:44;5.57;;;4.97;;
13208;SDS011;6669;42.678;23.332;2023-06-14T08:40:19;6.65;;;5.00;;
13208;SDS011;6669;42.678;23.332;2023-06-14T08:42:50;5.68;;;5.05;;
13208;SDS011;6669;42.678;23.332;2023-06-14T08:45:19;6.60;;;5.40;;
13208;SDS011;6669;42.678;23.332;2023-06-14T08:47:51;5.55;;;5.00;;
13208;SDS011;6669;42.678;23.332;2023-06-14T08:50:25;6.10;;;5.10;;
13208;SDS011;6669;42.678;23.332;2023-06-14T08:52:58;5.63;;;5.00;;
13208;SDS011;6669;42.678;23.332;2023-06-14T08:55:30;5.90;;;5.28;;
13208;SDS011;6669;42.678;23.332;2023-06-14T08:58:03;5.38;;;4.88;;
13208;SDS011;6669;42.678;23.332;2023-06-14T09:00:32;7.22;;;4.65;;
13208;SDS011;6669;42.678;23.332;2023-06-14T09:03:01;5.30;;;4.80;;
13208;SDS011;6669;42.678;23.332;2023-06-14T09:05:30;5.30;;;4.80;;
13208;SDS011;6669;42.678;23.332;2023-06-14T09:07:58;5.22;;;4.72;;
13208;SDS011;6669;42.678;23.332;2023-06-14T09:10:33;5.43;;;4.93;;
13208;SDS011;6669;42.678;23.332;2023-06-14T09:13:04;5.50;;;5.00;;
13208;SDS011;6669;42.678;23.332;2023-06-14T09:15:33;6.47;;;4.90;;
13208;SDS011;6669;42.678;23.332;2023-06-14T09:18:03;4.97;;;4.47;;
13208;SDS011;6669;42.678;23.332;2023-06-14T09:20:32;5.28;;;4.78;;
13208;SDS011;6669;42.678;23.332;2023-06-14T09:23:03;5.00;;;4.50;;
13208;SDS011;6669;42.678;23.332;2023-06-14T09:25:42;4.65;;;4.10;;
13208;SDS011;6669;42.678;23.332;2023-06-14T09:28:11;7.15;;;4.63;;
13208;SDS011;6669;42.678;23.332;2023-06-14T09:30:40;5.78;;;4.60;;
13208;SDS011;6669;42.678;23.332;2023-06-14T09:33:08;4.85;;;4.38;;
13208;SDS011;6669;42.678;23.332;2023-06-14T09:35:36;5.05;;;4.50;;
13208;SDS011;6669;42.678;23.332;2023-06-14T09:38:04;5.40;;;4.65;;
13208;SDS011;6669;42.678;23.332;2023-06-14T09:40:34;6.68;;;5.20;;
13208;SDS011;6669;42.678;23.332;2023-06-14T09:43:07;5.78;;;5.18;;
13208;SDS011;6669;42.678;23.332;2023-06-14T09:45:38;5.53;;;4.95;;
13208;SDS011;6669;42.678;23.332;2023-06-14T09:48:07;7.65;;;5.20;;
13208;SDS011;6669;42.678;23.332;2023-06-14T09:50:36;5.68;;;5.18;;
13208;SDS011;6669;42.678;23.332;2023-06-14T09:53:05;6.18;;;5.57;;
13208;SDS011;6669;42.678;23.332;2023-06-14T09:55:35;6.43;;;5.43;;
13208;SDS011;6669;42.678;23.332;2023-06-14T09:58:05;5.13;;;4.63;;
13208;SDS011;6669;42.678;23.332;2023-06-14T10:00:35;4.93;;;4.43;;
13208;SDS011;6669;42.678;23.332;2023-06-14T10:03:06;5.15;;;4.68;;
13208;SDS011;6669;42.678;23.332;2023-06-14T10:05:41;5.20;;;4.60;;
13208;SDS011;6669;42.678;23.332;2023-06-14T10:08:13;4.60;;;4.15;;
13208;SDS011;6669;42.678;23.332;2023-06-14T10:10:43;5.28;;;4.78;;
13208;SDS011;6669;42.678;23.332;2023-06-14T10:13:21;5.97;;;4.03;;
13208;SDS011;6669;42.678;23.332;2023-06-14T10:15:52;5.20;;;4.70;;
13208;SDS011;6669;42.678;23.332;2023-06-14T10:18:28;4.72;;;4.30;;
13208;SDS011;6669;42.678;23.332;2023-06-14T10:21:05;5.82;;;5.22;;
13208;SDS011;6669;42.678;23.332;2023-06-14T10:23:41;5.22;;;4.53;;
13208;SDS011;6669;42.678;23.332;2023-06-14T10:26:17;5.38;;;4.75;;
13208;SDS011;6669;42.678;23.332;2023-06-14T10:28:58;6.18;;;5.53;;
13208;SDS011;6669;42.678;23.332;2023-06-14T10:31:39;5.95;;;5.35;;
13208;SDS011;6669;42.678;23.332;2023-06-14T10:34:09;5.97;;;5.18;;
13208;SDS011;6669;42.678;23.332;2023-06-14T10:36:40;5.40;;;4.90;;
13208;SDS011;6669;42.678;23.332;2023-06-14T10:39:12;5.97;;;4.95;;
13208;SDS011;6669;42.678;23.332;2023-06-14T10:41:50;4.50;;;4.10;;
13208;SDS011;6669;42.678;23.332;2023-06-14T10:44:40;5.68;;;4.50;;
13208;SDS011;6669;42.678;23.332;2023-06-14T10:47:21;5.35;;;4.82;;
13208;SDS011;6669;42.678;23.332;2023-06-14T10:49:52;5.25;;;4.53;;
13208;SDS011;6669;42.678;23.332;2023-06-14T10:52:22;5.32;;;4.50;;
13208;SDS011;6669;42.678;23.332;2023-06-14T10:57:46;4.65;;;4.25;;
13208;SDS011;6669;42.678;23.332;2023-06-14T11:00:22;4.35;;;3.95;;
13208;SDS011;6669;42.678;23.332;2023-06-14T11:05:58;4.82;;;4.43;;
13208;SDS011;6669;42.678;23.332;2023-06-14T11:08:27;7.85;;;4.07;;
13208;SDS011;6669;42.678;23.332;2023-06-14T11:11:15;5.65;;;4.50;;
13208;SDS011;6669;42.678;23.332;2023-06-14T11:13:58;4.45;;;3.88;;
13208;SDS011;6669;42.678;23.332;2023-06-14T11:16:29;7.30;;;6.07;;
13208;SDS011;6669;42.678;23.332;2023-06-14T11:19:00;5.55;;;4.60;;
13208;SDS011;6669;42.678;23.332;2023-06-14T11:21:29;4.95;;;4.45;;
13208;SDS011;6669;42.678;23.332;2023-06-14T11:24:00;4.90;;;4.40;;
13208;SDS011;6669;42.678;23.332;2023-06-14T11:26:28;4.75;;;4.35;;
13208;SDS011;6669;42.678;23.332;2023-06-14T11:28:58;4.15;;;3.75;;
13208;SDS011;6669;42.678;23.332;2023-06-14T11:31:29;4.95;;;3.95;;
13208;SDS011;6669;42.678;23.332;2023-06-14T11:33:59;4.30;;;3.90;;
13208;SDS011;6669;42.678;23.332;2023-06-14T11:36:28;3.92;;;3.60;;
13208;SDS011;6669;42.678;23.332;2023-06-14T11:38:58;4.70;;;4.30;;
13208;SDS011;6669;42.678;23.332;2023-06-14T11:41:37;4.25;;;3.85;;
13208;SDS011;6669;42.678;23.332;2023-06-14T11:44:07;4.90;;;3.92;;
13208;SDS011;6669;42.678;23.332;2023-06-14T11:46:37;4.25;;;3.85;;
13208;SDS011;6669;42.678;23.332;2023-06-14T11:49:06;3.92;;;3.63;;
13208;SDS011;6669;42.678;23.332;2023-06-14T11:51:36;4.38;;;3.97;;
13208;SDS011;6669;42.678;23.332;2023-06-14T11:54:05;4.47;;;4.03;;
13208;SDS011;6669;42.678;23.332;2023-06-14T11:56:34;4.18;;;3.80;;
13208;SDS011;6669;42.678;23.332;2023-06-14T11:59:04;5.05;;;4.25;;
13208;SDS011;6669;42.678;23.332;2023-06-14T12:01:36;4.18;;;3.78;;
13208;SDS011;6669;42.678;23.332;2023-06-14T12:04:06;4.13;;;3.83;;
13208;SDS011;6669;42.678;23.332;2023-06-14T12:06:34;4.40;;;3.97;;
13208;SDS011;6669;42.678;23.332;2023-06-14T12:09:07;3.92;;;3.60;;
13208;SDS011;6669;42.678;23.332;2023-06-14T12:11:39;5.28;;;3.58;;
13208;SDS011;6669;42.678;23.332;2023-06-14T12:14:08;3.92;;;3.40;;
13208;SDS011;6669;42.678;23.332;2023-06-14T12:16:39;3.80;;;3.35;;
13208;SDS011;6669;42.678;23.332;2023-06-14T12:19:09;3.60;;;3.30;;
13208;SDS011;6669;42.678;23.332;2023-06-14T12:21:40;4.45;;;4.05;;
13208;SDS011;6669;42.678;23.332;2023-06-14T12:24:17;4.03;;;3.63;;
13208;SDS011;6669;42.678;23.332;2023-06-14T12:26:46;3.72;;;3.42;;
13208;SDS011;6669;42.678;23.332;2023-06-14T12:29:14;3.80;;;3.50;;
13208;SDS011;6669;42.678;23.332;2023-06-14T12:31:43;4.43;;;2.95;;
13208;SDS011;6669;42.678;23.332;2023-06-14T12:34:11;3.63;;;3.28;;
13208;SDS011;6669;42.678;23.332;2023-06-14T12:36:41;4.15;;;3.75;;
13208;SDS011;6669;42.678;23.332;2023-06-14T12:39:12;3.47;;;3.17;;
13208;SDS011;6669;42.678;23.332;2023-06-14T12:41:40;4.82;;;3.72;;
13208;SDS011;6669;42.678;23.332;2023-06-14T12:44:09;3.45;;;3.15;;
13208;SDS011;6669;42.678;23.332;2023-06-14T12:46:38;3.60;;;3.30;;
13208;SDS011;6669;42.678;23.332;2023-06-14T12:49:10;3.30;;;3.00;;
13208;SDS011;6669;42.678;23.332;2023-06-14T12:51:39;3.28;;;2.97;;
13208;SDS011;6669;42.678;23.332;2023-06-14T12:54:07;3.58;;;3.28;;
13208;SDS011;6669;42.678;23.332;2023-06-14T12:56:35;3.38;;;3.08;;
13208;SDS011;6669;42.678;23.332;2023-06-14T12:59:03;3.75;;;3.45;;
13208;SDS011;6669;42.678;23.332;2023-06-14T13:01:32;5.82;;;3.38;;
13208;SDS011;6669;42.678;23.332;2023-06-14T13:04:01;3.97;;;3.38;;
13208;SDS011;6669;42.678;23.332;2023-06-14T13:06:30;3.40;;;3.10;;
13208;SDS011;6669;42.678;23.332;2023-06-14T13:09:00;3.97;;;3.60;;
13208;SDS011;6669;42.678;23.332;2023-06-14T13:11:28;3.63;;;3.22;;
13208;SDS011;6669;42.678;23.332;2023-06-14T13:13:56;3.20;;;2.90;;
13208;SDS011;6669;42.678;23.332;2023-06-14T13:16:27;5.03;;;4.53;;
13208;SDS011;6669;42.678;23.332;2023-06-14T13:18:55;3.35;;;3.05;;
13208;SDS011;6669;42.678;23.332;2023-06-14T13:21:23;4.50;;;3.50;;
13208;SDS011;6669;42.678;23.332;2023-06-14T13:23:53;3.92;;;3.53;;
13208;SDS011;6669;42.678;23.332;2023-06-14T13:26:21;3.90;;;3.45;;
13208;SDS011;6669;42.678;23.332;2023-06-14T13:28:50;3.42;;;3.13;;
13208;SDS011;6669;42.678;23.332;2023-06-14T13:31:19;3.60;;;3.30;;
13208;SDS011;6669;42.678;23.332;2023-06-14T13:33:48;3.58;;;3.28;;
13208;SDS011;6669;42.678;23.332;2023-06-14T13:36:16;3.50;;;3.20;;
13208;SDS011;6669;42.678;23.332;2023-06-14T13:38:45;3.63;;;3.33;;
13208;SDS011;6669;42.678;23.332;2023-06-14T13:41:16;3.95;;;3.42;;
13208;SDS011;6669;42.678;23.332;2023-06-14T13:43:44;4.20;;;3.80;;
13208;SDS011;6669;42.678;23.332;2023-06-14T13:46:12;4.53;;;3.63;;
13208;SDS011;6669;42.678;23.332;2023-06-14T13:48:40;4.22;;;3.83;;
13208;SDS011;6669;42.678;23.332;2023-06-14T13:51:08;4.28;;;3.88;;
13208;SDS011;6669;42.678;23.332;2023-06-14T13:53:37;4.95;;;4.30;;
13208;SDS011;6669;42.678;23.332;2023-06-14T13:56:05;4.40;;;4.00;;
13208;SDS011;6669;42.678;23.332;2023-06-14T13:58:35;5.50;;;3.95;;
13208;SDS011;6669;42.678;23.332;2023-06-14T14:01:03;4.97;;;4.00;;
13208;SDS011;6669;42.678;23.332;2023-06-14T14:03:31;3.72;;;3.42;;
13208;SDS011;6669;42.678;23.332;2023-06-14T14:06:00;5.38;;;3.97;;
13208;SDS011;6669;42.678;23.332;2023-06-14T14:08:28;4.75;;;4.18;;
13208;SDS011;6669;42.678;23.332;2023-06-14T14:10:56;5.28;;;4.78;;
13208;SDS011;6669;42.678;23.332;2023-06-14T14:13:24;5.10;;;4.47;;
13208;SDS011;6669;42.678;23.332;2023-06-14T14:15:54;4.22;;;3.83;;
13208;SDS011;6669;42.678;23.332;2023-06-14T14:18:22;5.57;;;4.05;;
13208;SDS011;6669;42.678;23.332;2023-06-14T14:20:51;6.15;;;3.30;;
13208;SDS011;6669;42.678;23.332;2023-06-14T14:23:19;3.83;;;3.53;;
13208;SDS011;6669;42.678;23.332;2023-06-14T14:25:47;3.70;;;3.40;;
13208;SDS011;6669;42.678;23.332;2023-06-14T14:28:15;3.35;;;3.00;;
13208;SDS011;6669;42.678;23.332;2023-06-14T14:30:46;3.78;;;3.40;;
13208;SDS011;6669;42.678;23.332;2023-06-14T14:33:16;4.25;;;3.85;;
13208;SDS011;6669;42.678;23.332;2023-06-14T14:35:44;4.28;;;3.40;;
13208;SDS011;6669;42.678;23.332;2023-06-14T14:38:13;3.88;;;3.47;;
13208;SDS011;6669;42.678;23.332;2023-06-14T14:40:41;3.45;;;3.15;;
13208;SDS011;6669;42.678;23.332;2023-06-14T14:43:10;4.22;;;3.40;;
13208;SDS011;6669;42.678;23.332;2023-06-14T14:45:38;3.75;;;3.45;;
13208;SDS011;6669;42.678;23.332;2023-06-14T14:48:06;4.03;;;3.58;;
13208;SDS011;6669;42.678;23.332;2023-06-14T14:50:35;3.95;;;3.55;;
13208;SDS011;6669;42.678;23.332;2023-06-14T14:53:04;4.10;;;3.70;;
13208;SDS011;6669;42.678;23.332;2023-06-14T14:55:32;4.28;;;3.88;;
13208;SDS011;6669;42.678;23.332;2023-06-14T14:58:03;4.22;;;3.83;;
13208;SDS011;6669;42.678;23.332;2023-06-14T15:00:33;3.35;;;3.08;;
13208;SDS011;6669;42.678;23.332;2023-06-14T15:03:01;4.20;;;3.80;;
13208;SDS011;6669;42.678;23.332;2023-06-14T15:05:30;5.00;;;3.58;;
13208;SDS011;6669;42.678;23.332;2023-06-14T15:07:59;4.03;;;3.67;;
13208;SDS011;6669;42.678;23.332;2023-06-14T15:10:27;4.38;;;3.63;;